createdAt,value
2019-03-19T00:01:20.760Z,99.90
2019-03-19T00:03:15.596Z,99.90
2019-03-19T00:05:11.033Z,99.90
2019-03-19T00:07:05.957Z,99.90
2019-03-19T00:09:00.454Z,99.90
2019-03-19T00:10:55.695Z,99.90
2019-03-19T00:12:50.433Z,99.90
2019-03-19T00:14:45.092Z,99.90
2019-03-19T00:16:39.076Z,99.90
2019-03-19T00:18:33.123Z,99.90
2019-03-19T00:20:28.828Z,99.90
2019-03-19T00:22:25.655Z,99.90
2019-03-19T00:24:20.269Z,99.90
2019-03-19T00:26:15.092Z,99.90
2019-03-19T00:28:10.111Z,99.90
2019-03-19T00:30:07.281Z,99.90
2019-03-19T00:32:02.103Z,99.90
2019-03-19T00:33:58.330Z,99.90
2019-03-19T00:35:53.460Z,99.90
2019-03-19T00:37:48.275Z,99.90
2019-03-19T00:39:44.190Z,99.90
2019-03-19T00:41:38.979Z,99.90
2019-03-19T00:43:33.003Z,99.90
2019-03-19T00:45:28.095Z,99.90
2019-03-19T00:47:22.868Z,99.90
2019-03-19T00:49:17.537Z,99.90
2019-03-19T00:51:12.191Z,99.90
2019-03-19T00:53:06.794Z,99.90
2019-03-19T00:55:01.545Z,99.90
2019-03-19T00:56:56.211Z,99.90
2019-03-19T00:58:51.162Z,99.90
2019-03-19T01:00:45.725Z,99.90
2019-03-19T01:02:40.339Z,99.90
2019-03-19T01:04:35.157Z,99.90
2019-03-19T01:06:30.051Z,99.90
2019-03-19T01:08:24.060Z,99.90
2019-03-19T01:10:18.285Z,99.90
2019-03-19T01:12:12.770Z,99.90
2019-03-19T01:14:06.978Z,99.90
2019-03-19T01:16:01.202Z,99.90
2019-03-19T01:17:55.172Z,99.90
2019-03-19T01:19:50.160Z,99.90
2019-03-19T01:21:44.701Z,99.90
2019-03-19T01:23:39.275Z,99.90
2019-03-19T01:25:34.980Z,99.90
2019-03-19T01:27:29.351Z,99.90
2019-03-19T01:29:23.902Z,99.90
2019-03-19T01:31:18.457Z,99.90
2019-03-19T01:33:13.415Z,99.90
2019-03-19T01:35:07.677Z,99.90
2019-03-19T01:37:02.689Z,99.90
2019-03-19T01:38:56.489Z,99.90
2019-03-19T01:40:51.378Z,99.90
2019-03-19T01:42:46.364Z,99.90
2019-03-19T01:44:41.015Z,99.90
2019-03-19T01:46:35.327Z,99.90
2019-03-19T01:48:29.292Z,99.90
2019-03-19T01:50:23.257Z,99.90
2019-03-19T01:52:17.842Z,99.90
2019-03-19T01:54:12.355Z,99.90
2019-03-19T01:56:08.113Z,99.90
2019-03-19T01:58:03.152Z,99.90
2019-03-19T01:59:57.723Z,99.90
2019-03-19T02:01:51.702Z,99.90
2019-03-19T02:03:46.164Z,99.90
2019-03-19T02:05:41.453Z,99.90
2019-03-19T02:07:35.831Z,99.90
2019-03-19T02:09:29.661Z,99.90
2019-03-19T02:11:23.897Z,99.90
2019-03-19T02:13:18.359Z,99.90
2019-03-19T02:15:13.365Z,99.90
2019-03-19T02:17:08.160Z,99.90
2019-03-19T02:19:03.472Z,99.90
2019-03-19T02:20:58.575Z,99.90
2019-03-19T02:22:53.100Z,99.90
2019-03-19T02:24:47.661Z,99.90
2019-03-19T02:26:42.150Z,99.90
2019-03-19T02:28:37.049Z,99.90
2019-03-19T02:30:31.942Z,99.90
2019-03-19T02:32:26.862Z,99.90
2019-03-19T02:34:22.004Z,99.90
2019-03-19T02:36:16.799Z,99.90
2019-03-19T02:38:11.462Z,99.90
2019-03-19T02:40:06.692Z,99.90
2019-03-19T02:42:01.679Z,99.90
2019-03-19T02:43:56.966Z,99.90
2019-03-19T02:45:52.985Z,99.90
2019-03-19T02:47:48.738Z,99.90
2019-03-19T02:49:43.547Z,99.90
2019-03-19T02:51:37.655Z,99.90
2019-03-19T02:53:31.948Z,99.90
2019-03-19T02:55:26.161Z,99.90
2019-03-19T02:57:20.985Z,99.90
2019-03-19T02:59:23.833Z,99.90
2019-03-19T03:01:23.932Z,99.90
2019-03-19T03:03:22.816Z,99.90
2019-03-19T03:05:20.543Z,99.90
2019-03-19T03:07:16.737Z,99.90
2019-03-19T03:09:11.872Z,99.90
2019-03-19T03:11:06.235Z,99.90
2019-03-19T03:13:00.771Z,99.90
2019-03-19T03:14:55.986Z,99.90
2019-03-19T03:16:52.251Z,99.90
2019-03-19T03:18:52.541Z,99.90
2019-03-19T03:20:50.771Z,99.90
2019-03-19T03:22:46.693Z,99.90
2019-03-19T03:24:46.999Z,99.90
2019-03-19T03:26:48.385Z,99.90
2019-03-19T03:28:38.677Z,99.90
2019-03-19T03:30:34.010Z,99.90
2019-03-19T03:32:29.197Z,99.90
2019-03-19T03:34:29.278Z,99.90
2019-03-19T03:36:25.590Z,99.90
2019-03-19T03:38:21.122Z,99.90
2019-03-19T03:40:16.503Z,99.90
2019-03-19T03:42:11.351Z,99.90
2019-03-19T03:44:06.536Z,99.90
2019-03-19T03:46:03.675Z,99.90
2019-03-19T03:48:03.131Z,99.90
2019-03-19T03:49:59.438Z,99.90
2019-03-19T03:51:57.961Z,99.90
2019-03-19T03:54:00.308Z,99.90
2019-03-19T03:55:55.974Z,99.90
2019-03-19T03:57:52.473Z,99.90
2019-03-19T03:59:51.409Z,99.90
2019-03-19T04:01:49.905Z,99.90
2019-03-19T04:03:44.950Z,99.90
2019-03-19T04:05:40.028Z,99.90
2019-03-19T04:07:35.304Z,99.90
2019-03-19T04:09:30.250Z,99.90
2019-03-19T04:11:25.382Z,99.90
2019-03-19T04:13:21.422Z,99.90
2019-03-19T04:15:16.392Z,99.90
2019-03-19T04:17:11.100Z,99.90
2019-03-19T04:19:05.909Z,99.90
2019-03-19T04:21:00.113Z,99.90
2019-03-19T04:22:55.937Z,99.90
2019-03-19T04:24:50.869Z,99.90
2019-03-19T04:26:46.300Z,99.90
2019-03-19T04:28:42.201Z,99.90
2019-03-19T04:30:37.730Z,99.90
2019-03-19T04:32:37.756Z,99.90
2019-03-19T04:34:33.500Z,99.90
2019-03-19T04:36:29.594Z,99.90
2019-03-19T04:38:24.034Z,99.90
2019-03-19T04:40:18.892Z,99.90
2019-03-19T04:42:13.519Z,99.90
2019-03-19T04:44:08.716Z,99.90
2019-03-19T04:46:04.062Z,99.90
2019-03-19T04:47:58.724Z,99.90
2019-03-19T04:49:53.784Z,99.90
2019-03-19T04:51:48.717Z,99.90
2019-03-19T04:53:42.960Z,99.90
2019-03-19T04:55:37.473Z,99.90
2019-03-19T04:57:33.532Z,99.90
2019-03-19T04:59:29.798Z,99.90
2019-03-19T05:01:30.612Z,99.90
2019-03-19T05:03:33.124Z,99.90
2019-03-19T05:05:33.674Z,99.90
2019-03-19T05:07:30.211Z,99.90
2019-03-19T05:09:26.585Z,99.90
2019-03-19T05:11:24.400Z,99.90
2019-03-19T05:13:21.688Z,99.90
2019-03-19T05:15:21.458Z,99.90
2019-03-19T05:17:17.626Z,99.90
2019-03-19T05:19:17.494Z,99.90
2019-03-19T05:21:16.983Z,99.90
2019-03-19T05:23:11.944Z,99.90
2019-03-19T05:25:07.599Z,99.90
2019-03-19T05:27:03.019Z,99.90
2019-03-19T05:28:57.734Z,99.90
2019-03-19T05:30:52.564Z,99.90
2019-03-19T05:32:47.642Z,99.90
2019-03-19T05:34:42.042Z,99.90
2019-03-19T05:36:37.079Z,99.90
2019-03-19T05:38:33.141Z,99.90
2019-03-19T05:40:30.119Z,99.90
2019-03-19T05:42:25.552Z,99.90
2019-03-19T05:44:22.767Z,99.90
2019-03-19T05:46:21.363Z,99.90
2019-03-19T05:48:18.698Z,99.90
2019-03-19T05:50:18.054Z,99.90
2019-03-19T05:52:17.723Z,99.90
2019-03-19T05:54:13.828Z,99.90
2019-03-19T05:56:08.358Z,99.90
2019-03-19T05:58:03.243Z,99.90
2019-03-19T05:59:58.099Z,99.90
2019-03-19T06:01:53.096Z,99.90
2019-03-19T06:03:48.010Z,99.90
2019-03-19T06:05:42.544Z,99.90
2019-03-19T06:07:37.007Z,99.90
2019-03-19T06:09:32.121Z,99.90
2019-03-19T06:11:27.407Z,99.90
2019-03-19T06:13:24.246Z,99.90
2019-03-19T06:15:19.901Z,99.90
2019-03-19T06:17:15.039Z,99.90
2019-03-19T06:19:12.045Z,99.90
2019-03-19T06:21:07.095Z,99.90
2019-03-19T06:23:10.746Z,99.90
2019-03-19T06:25:09.702Z,99.90
2019-03-19T06:27:05.834Z,99.90
2019-03-19T06:29:01.990Z,99.90
2019-03-19T06:30:58.340Z,99.90
2019-03-19T06:32:53.041Z,99.90
2019-03-19T06:34:47.835Z,99.90
2019-03-19T06:36:42.618Z,99.90
2019-03-19T06:38:37.681Z,99.90
2019-03-19T06:40:39.161Z,99.90
2019-03-19T06:42:36.768Z,99.90
2019-03-19T06:44:31.912Z,99.90
2019-03-19T06:46:26.924Z,99.90
2019-03-19T06:48:21.937Z,99.90
2019-03-19T06:50:17.355Z,99.90
2019-03-19T06:52:12.511Z,99.90
2019-03-19T06:54:06.780Z,99.90
2019-03-19T06:56:01.693Z,99.90
2019-03-19T06:57:55.732Z,99.90
2019-03-19T06:59:50.565Z,99.90
2019-03-19T07:01:44.747Z,99.90
2019-03-19T07:03:39.863Z,99.90
2019-03-19T07:05:34.099Z,99.90
2019-03-19T07:07:28.181Z,99.90
2019-03-19T07:09:22.883Z,99.90
2019-03-19T07:11:17.828Z,99.90
2019-03-19T07:13:12.186Z,99.90
2019-03-19T07:15:08.849Z,99.90
2019-03-19T07:17:04.088Z,99.90
2019-03-19T07:18:58.867Z,99.90
2019-03-19T07:20:53.853Z,99.90
2019-03-19T07:22:49.132Z,99.90
2019-03-19T07:24:44.165Z,99.90
2019-03-19T07:26:38.993Z,99.90
2019-03-19T07:28:33.993Z,99.90
2019-03-19T07:30:28.779Z,99.90
2019-03-19T07:32:22.878Z,99.90
2019-03-19T07:34:17.913Z,99.90
2019-03-19T07:36:12.715Z,99.90
2019-03-19T07:38:07.498Z,99.90
2019-03-19T07:40:02.383Z,99.90
2019-03-19T07:41:57.699Z,99.90
2019-03-19T07:43:52.481Z,99.90
2019-03-19T07:45:47.267Z,99.90
2019-03-19T07:47:42.525Z,99.90
2019-03-19T07:49:37.647Z,99.90
2019-03-19T07:51:32.872Z,99.90
2019-03-19T07:53:27.662Z,99.90
2019-03-19T07:55:29.613Z,99.90
2019-03-19T07:57:24.397Z,99.90
2019-03-19T07:59:27.345Z,99.90
2019-03-19T08:01:27.086Z,99.90
2019-03-19T08:03:18.698Z,99.90
2019-03-19T08:05:13.575Z,99.90
2019-03-19T08:07:12.506Z,99.90
2019-03-19T08:09:08.049Z,99.90
2019-03-19T08:11:03.110Z,99.90
2019-03-19T08:12:58.055Z,99.90
2019-03-19T08:14:52.415Z,99.90
2019-03-19T08:16:46.633Z,99.90
2019-03-19T08:18:40.976Z,99.90
2019-03-19T08:20:36.214Z,99.90
2019-03-19T08:22:30.411Z,99.90
2019-03-19T08:24:24.702Z,99.90
2019-03-19T08:26:19.681Z,99.90
2019-03-19T08:28:14.270Z,99.90
2019-03-19T08:30:10.946Z,99.90
2019-03-19T08:32:05.240Z,99.90
2019-03-19T08:33:59.726Z,99.90
2019-03-19T08:35:54.294Z,99.90
2019-03-19T08:37:49.089Z,99.90
2019-03-19T08:39:43.256Z,99.90
2019-03-19T08:41:37.652Z,99.90
2019-03-19T08:43:32.175Z,99.90
2019-03-19T08:45:27.231Z,99.90
2019-03-19T08:47:21.956Z,99.90
2019-03-19T08:49:16.748Z,99.90
2019-03-19T08:51:11.777Z,99.90
2019-03-19T08:53:06.318Z,99.90
2019-03-19T08:55:01.394Z,99.90
2019-03-19T08:56:56.478Z,99.90
2019-03-19T08:58:51.537Z,99.90
2019-03-19T09:00:45.449Z,99.90
2019-03-19T09:02:40.702Z,99.90
2019-03-19T09:04:34.962Z,99.90
2019-03-19T09:06:29.689Z,99.90
2019-03-19T09:08:23.515Z,99.90
2019-03-19T09:10:18.079Z,99.90
2019-03-19T09:12:12.105Z,99.90
2019-03-19T09:14:06.748Z,99.90
2019-03-19T09:16:01.372Z,99.90
2019-03-19T09:17:56.575Z,99.90
2019-03-19T09:19:50.811Z,99.90
2019-03-19T09:21:45.814Z,99.90
2019-03-19T09:23:40.743Z,99.90
2019-03-19T09:25:35.466Z,99.90
2019-03-19T09:27:30.295Z,99.90
2019-03-19T09:29:25.484Z,99.90
2019-03-19T09:31:19.852Z,99.90
2019-03-19T09:33:14.706Z,99.90
2019-03-19T09:35:10.474Z,99.90
2019-03-19T09:37:04.797Z,99.90
2019-03-19T09:38:59.629Z,99.90
2019-03-19T09:40:54.674Z,99.90
2019-03-19T09:42:49.288Z,99.90
2019-03-19T09:44:43.714Z,99.90
2019-03-19T09:46:38.519Z,99.90
2019-03-19T09:48:32.740Z,99.90
2019-03-19T09:50:27.635Z,99.90
2019-03-19T09:52:22.519Z,99.90
2019-03-19T09:54:17.203Z,99.90
2019-03-19T09:56:12.144Z,99.90
2019-03-19T09:58:07.078Z,99.90
2019-03-19T10:00:01.722Z,99.90
2019-03-19T10:01:56.775Z,99.90
2019-03-19T10:03:51.888Z,99.90
2019-03-19T10:05:46.985Z,99.90
2019-03-19T10:07:42.185Z,99.90
2019-03-19T10:09:36.343Z,99.90
2019-03-19T10:11:31.276Z,99.90
2019-03-19T10:13:26.829Z,99.90
2019-03-19T10:15:21.295Z,99.90
2019-03-19T10:17:15.642Z,99.90
2019-03-19T10:19:09.878Z,99.90
2019-03-19T10:21:04.101Z,99.90
2019-03-19T10:22:58.858Z,99.90
2019-03-19T10:24:53.717Z,99.90
2019-03-19T10:26:48.347Z,99.90
2019-03-19T10:28:42.727Z,99.90
2019-03-19T10:30:37.011Z,99.90
2019-03-19T10:32:31.582Z,99.90
2019-03-19T10:34:26.479Z,99.90
2019-03-19T10:36:21.644Z,99.90
2019-03-19T10:38:15.911Z,99.90
2019-03-19T10:40:11.228Z,99.90
2019-03-19T10:42:05.697Z,99.90
2019-03-19T10:44:00.798Z,99.90
2019-03-19T10:45:54.968Z,99.90
2019-03-19T10:47:49.219Z,99.90
2019-03-19T10:49:43.966Z,99.90
2019-03-19T10:51:38.694Z,99.90
2019-03-19T10:53:33.731Z,99.90
2019-03-19T10:55:28.428Z,99.20
2019-03-19T10:57:23.423Z,99.00
2019-03-19T10:59:18.456Z,97.70
2019-03-19T11:01:13.254Z,98.10
2019-03-19T11:03:08.467Z,97.70
2019-03-19T11:05:03.174Z,98.90
2019-03-19T11:06:57.823Z,98.00
2019-03-19T11:08:52.515Z,95.90
2019-03-19T11:10:47.255Z,96.70
2019-03-19T11:12:41.792Z,95.40
2019-03-19T11:14:36.854Z,96.60
2019-03-19T11:16:31.858Z,95.00
2019-03-19T11:18:27.081Z,95.00
2019-03-19T11:20:22.162Z,96.20
2019-03-19T11:22:16.807Z,96.30
2019-03-19T11:24:10.732Z,94.80
2019-03-19T11:26:05.403Z,94.80
2019-03-19T11:27:59.652Z,95.40
2019-03-19T11:29:59.686Z,94.40
2019-03-19T11:31:49.635Z,90.40
2019-03-19T11:33:44.420Z,91.30
2019-03-19T11:35:38.785Z,85.80
2019-03-19T11:37:32.878Z,84.50
2019-03-19T11:39:27.466Z,79.00
2019-03-19T11:41:22.532Z,80.80
2019-03-19T11:43:16.708Z,88.50
2019-03-19T11:45:12.665Z,88.80
2019-03-19T11:47:06.875Z,89.70
2019-03-19T11:49:01.191Z,90.80
2019-03-19T11:50:56.385Z,90.80
2019-03-19T11:52:51.211Z,91.20
2019-03-19T11:54:45.424Z,91.70
2019-03-19T11:56:40.334Z,92.20
2019-03-19T11:58:35.259Z,91.80
2019-03-19T12:00:33.139Z,91.50
2019-03-19T12:02:27.838Z,92.40
2019-03-19T12:04:22.541Z,93.10
2019-03-19T12:06:17.170Z,93.60
2019-03-19T12:08:11.531Z,92.80
2019-03-19T12:10:06.887Z,93.20
2019-03-19T12:12:01.588Z,93.00
2019-03-19T12:13:56.724Z,92.70
2019-03-19T12:15:51.343Z,92.60
2019-03-19T12:17:45.536Z,92.50
2019-03-19T12:19:40.399Z,92.10
2019-03-19T12:21:34.552Z,91.90
2019-03-19T12:23:29.661Z,91.30
2019-03-19T12:25:24.964Z,90.20
2019-03-19T12:27:19.286Z,89.50
2019-03-19T12:29:14.082Z,90.10
2019-03-19T12:31:09.112Z,90.50
2019-03-19T12:33:03.934Z,90.80
2019-03-19T12:35:01.473Z,90.60
2019-03-19T12:36:55.159Z,90.30
2019-03-19T12:38:50.083Z,88.70
2019-03-19T12:40:44.817Z,85.80
2019-03-19T12:42:39.643Z,88.30
2019-03-19T12:44:34.363Z,89.30
2019-03-19T12:46:29.577Z,90.00
2019-03-19T12:48:24.409Z,90.10
2019-03-19T12:50:19.511Z,90.10
2019-03-19T12:52:14.462Z,87.70
2019-03-19T12:54:09.046Z,87.00
2019-03-19T12:56:03.090Z,85.90
2019-03-19T12:57:57.923Z,86.00
2019-03-19T12:59:52.603Z,86.60
2019-03-19T13:01:47.512Z,86.30
2019-03-19T13:03:42.727Z,86.60
2019-03-19T13:05:37.652Z,84.40
2019-03-19T13:07:32.431Z,84.50
2019-03-19T13:09:26.468Z,82.00
2019-03-19T13:11:20.745Z,83.00
2019-03-19T13:13:14.907Z,79.60
2019-03-19T13:15:11.162Z,79.10
2019-03-19T13:17:04.799Z,82.50
2019-03-19T13:18:59.474Z,80.20
2019-03-19T13:20:53.718Z,80.80
2019-03-19T13:22:48.531Z,79.50
2019-03-19T13:24:43.496Z,78.70
2019-03-19T13:26:38.431Z,79.30
2019-03-19T13:28:34.227Z,79.70
2019-03-19T13:30:29.513Z,79.70
2019-03-19T13:32:24.512Z,79.70
2019-03-19T13:34:19.148Z,79.70
2019-03-19T13:36:13.551Z,79.40
2019-03-19T13:38:08.313Z,80.00
2019-03-19T13:40:03.028Z,78.50
2019-03-19T13:41:58.099Z,79.80
2019-03-19T13:43:53.113Z,78.40
2019-03-19T13:45:48.193Z,79.90
2019-03-19T13:47:43.215Z,80.30
2019-03-19T13:49:38.034Z,79.60
2019-03-19T13:51:32.313Z,80.50
2019-03-19T13:53:26.808Z,80.80
2019-03-19T13:55:21.889Z,79.50
2019-03-19T13:57:16.924Z,79.80
2019-03-19T13:59:11.098Z,79.10
2019-03-19T14:01:05.831Z,79.30
2019-03-19T14:03:00.554Z,79.80
2019-03-19T14:04:54.289Z,80.40
2019-03-19T14:06:48.814Z,80.20
2019-03-19T14:08:43.464Z,79.90
2019-03-19T14:10:37.639Z,79.80
2019-03-19T14:12:32.170Z,80.70
2019-03-19T14:14:26.865Z,79.70
2019-03-19T14:16:21.708Z,77.20
2019-03-19T14:18:15.917Z,77.50
2019-03-19T14:20:12.674Z,78.00
2019-03-19T14:22:06.524Z,78.10
2019-03-19T14:24:00.245Z,77.20
2019-03-19T14:25:54.821Z,78.00
2019-03-19T14:27:49.253Z,76.80
2019-03-19T14:29:43.889Z,77.40
2019-03-19T14:31:38.920Z,77.40
2019-03-19T14:33:33.931Z,77.80
2019-03-19T14:35:36.809Z,78.30
2019-03-19T14:37:23.788Z,78.40
2019-03-19T14:39:17.962Z,78.40
2019-03-19T14:41:12.126Z,78.10
2019-03-19T14:43:06.837Z,77.70
2019-03-19T14:45:01.322Z,76.60
2019-03-19T14:46:55.948Z,77.50
2019-03-19T14:48:52.174Z,76.50
2019-03-19T14:50:47.084Z,75.40
2019-03-19T14:52:43.767Z,75.10
2019-03-19T14:54:37.420Z,75.40
2019-03-19T14:56:31.631Z,75.00
2019-03-19T14:58:26.530Z,75.70
2019-03-19T15:00:21.507Z,75.70
2019-03-19T15:02:15.611Z,75.90
2019-03-19T15:04:10.670Z,76.20
2019-03-19T15:06:05.303Z,76.40
2019-03-19T15:08:00.070Z,77.10
2019-03-19T15:09:54.929Z,76.00
2019-03-19T15:11:49.651Z,75.90
2019-03-19T15:13:44.554Z,76.50
2019-03-19T15:15:39.252Z,76.60
2019-03-19T15:17:33.447Z,77.70
2019-03-19T15:19:27.549Z,78.50
2019-03-19T15:21:22.064Z,78.30
2019-03-19T15:23:16.665Z,78.00
2019-03-19T15:25:10.595Z,78.20
2019-03-19T15:27:05.393Z,78.00
2019-03-19T15:29:00.199Z,78.50
2019-03-19T15:30:55.122Z,77.00
2019-03-19T15:32:48.988Z,76.40
2019-03-19T15:34:44.256Z,76.80
2019-03-19T15:36:38.170Z,76.30
2019-03-19T15:38:32.831Z,77.10
2019-03-19T15:40:27.738Z,77.20
2019-03-19T15:42:21.908Z,77.60
2019-03-19T15:44:22.944Z,77.50
2019-03-19T15:46:18.170Z,77.90
2019-03-19T15:48:12.929Z,79.00
2019-03-19T15:50:08.704Z,79.30
2019-03-19T15:52:03.397Z,80.50
2019-03-19T15:54:02.985Z,79.80
2019-03-19T15:55:57.516Z,81.60
2019-03-19T15:57:52.352Z,81.10
2019-03-19T15:59:46.576Z,83.50
2019-03-19T16:01:41.283Z,83.20
2019-03-19T16:03:36.078Z,82.90
2019-03-19T16:05:30.225Z,82.50
2019-03-19T16:07:25.150Z,83.00
2019-03-19T16:09:19.912Z,82.40
2019-03-19T16:11:14.128Z,83.00
2019-03-19T16:13:08.320Z,82.80
2019-03-19T16:15:03.671Z,83.60
2019-03-19T16:16:58.526Z,85.60
2019-03-19T16:18:52.548Z,85.30
2019-03-19T16:20:47.635Z,85.30
2019-03-19T16:22:42.456Z,85.60
2019-03-19T16:24:37.708Z,84.70
2019-03-19T16:26:33.490Z,84.50
2019-03-19T16:28:27.632Z,84.80
2019-03-19T16:30:22.838Z,83.90
2019-03-19T16:32:16.762Z,82.90
2019-03-19T16:34:11.742Z,83.60
2019-03-19T16:36:06.688Z,83.30
2019-03-19T16:38:00.974Z,82.80
2019-03-19T16:39:59.103Z,82.20
2019-03-19T16:41:54.365Z,82.40
2019-03-19T16:43:50.336Z,82.60
2019-03-19T16:45:44.962Z,82.60
2019-03-19T16:47:39.507Z,82.90
2019-03-19T16:49:34.407Z,83.00
2019-03-19T16:51:28.691Z,83.30
2019-03-19T16:53:23.778Z,83.70
2019-03-19T16:55:18.713Z,83.80
2019-03-19T16:57:13.991Z,84.00
2019-03-19T16:59:08.652Z,84.30
2019-03-19T17:01:03.517Z,85.00
2019-03-19T17:02:58.340Z,85.00
2019-03-19T17:04:53.129Z,86.40
2019-03-19T17:06:47.258Z,86.30
2019-03-19T17:08:42.134Z,86.40
2019-03-19T17:10:37.011Z,86.20
2019-03-19T17:12:31.674Z,86.90
2019-03-19T17:14:26.674Z,89.90
2019-03-19T17:16:20.930Z,87.80
2019-03-19T17:18:16.843Z,88.30
2019-03-19T17:20:12.590Z,89.30
2019-03-19T17:22:07.512Z,89.00
2019-03-19T17:24:02.010Z,90.40
2019-03-19T17:25:56.809Z,89.50
2019-03-19T17:27:51.631Z,89.50
2019-03-19T17:29:45.763Z,90.30
2019-03-19T17:31:39.886Z,89.50
2019-03-19T17:33:35.015Z,90.20
2019-03-19T17:35:29.665Z,90.70
2019-03-19T17:37:24.356Z,91.10
2019-03-19T17:39:19.261Z,90.80
2019-03-19T17:41:13.816Z,90.50
2019-03-19T17:43:08.819Z,91.50
2019-03-19T17:45:03.148Z,92.60
2019-03-19T17:46:57.171Z,93.10
2019-03-19T17:48:52.385Z,91.80
2019-03-19T17:50:48.250Z,92.50
2019-03-19T17:52:42.709Z,92.80
2019-03-19T17:54:36.726Z,93.90
2019-03-19T17:56:30.879Z,94.30
2019-03-19T17:58:24.786Z,93.90
2019-03-19T18:00:22.891Z,93.60
2019-03-19T18:02:24.029Z,93.50
2019-03-19T18:04:14.483Z,93.80
2019-03-19T18:06:08.721Z,93.70
2019-03-19T18:08:03.621Z,93.80
2019-03-19T18:09:58.278Z,94.20
2019-03-19T18:11:53.319Z,94.50
2019-03-19T18:13:48.579Z,94.50
2019-03-19T18:15:43.288Z,95.00
2019-03-19T18:17:37.819Z,94.70
2019-03-19T18:19:32.668Z,95.00
2019-03-19T18:21:27.566Z,95.10
2019-03-19T18:23:21.807Z,95.40
2019-03-19T18:25:16.896Z,95.80
2019-03-19T18:27:12.919Z,95.40
2019-03-19T18:29:06.906Z,96.00
2019-03-19T18:31:01.872Z,96.50
2019-03-19T18:32:55.787Z,97.50
2019-03-19T18:34:50.811Z,98.20
2019-03-19T18:36:45.800Z,98.10
2019-03-19T18:38:40.223Z,98.30
2019-03-19T18:40:35.011Z,98.80
2019-03-19T18:42:29.826Z,98.40
2019-03-19T18:44:24.742Z,98.40
2019-03-19T18:46:19.473Z,97.90
2019-03-19T18:48:14.393Z,97.80
2019-03-19T18:50:10.843Z,97.80
2019-03-19T18:52:05.627Z,98.20
2019-03-19T18:54:00.400Z,98.70
2019-03-19T18:55:54.440Z,98.60
2019-03-19T18:57:50.509Z,98.60
2019-03-19T18:59:45.227Z,98.70
2019-03-19T19:01:39.803Z,98.90
2019-03-19T19:03:34.830Z,99.00
2019-03-19T19:05:29.091Z,99.50
2019-03-19T19:07:23.743Z,99.90
2019-03-19T19:09:18.300Z,99.90
2019-03-19T19:11:14.853Z,99.90
2019-03-19T19:13:10.942Z,99.90
2019-03-19T19:15:07.795Z,99.90
2019-03-19T19:17:03.931Z,99.90
2019-03-19T19:18:58.813Z,99.90
2019-03-19T19:20:53.136Z,99.90
2019-03-19T19:22:50.954Z,99.90
2019-03-19T19:24:45.533Z,99.90
2019-03-19T19:26:39.750Z,99.90
2019-03-19T19:28:34.603Z,99.90
2019-03-19T19:30:29.684Z,99.90
2019-03-19T19:32:24.945Z,99.90
2019-03-19T19:34:19.922Z,99.90
2019-03-19T19:36:14.860Z,99.90
2019-03-19T19:38:10.236Z,99.90
2019-03-19T19:40:05.223Z,99.90
2019-03-19T19:42:03.279Z,99.90
2019-03-19T19:43:57.281Z,99.90
2019-03-19T19:45:51.532Z,99.90
2019-03-19T19:47:47.165Z,99.90
2019-03-19T19:49:42.279Z,99.90
2019-03-19T19:51:37.187Z,99.90
2019-03-19T19:53:32.185Z,99.90
2019-03-19T19:55:27.223Z,99.90
2019-03-19T19:57:21.892Z,99.90
2019-03-19T19:59:16.663Z,99.90
2019-03-19T20:01:11.466Z,99.90
2019-03-19T20:03:12.309Z,99.90
2019-03-19T20:05:03.383Z,99.90
2019-03-19T20:06:57.683Z,99.90
2019-03-19T20:08:52.557Z,99.90
2019-03-19T20:10:47.422Z,99.90
2019-03-19T20:12:50.499Z,99.90
2019-03-19T20:14:45.106Z,99.90
2019-03-19T20:16:39.773Z,99.90
2019-03-19T20:18:34.010Z,99.90
2019-03-19T20:20:28.663Z,99.90
2019-03-19T20:22:24.109Z,99.90
2019-03-19T20:24:18.253Z,99.90
2019-03-19T20:26:13.119Z,99.90
2019-03-19T20:28:07.699Z,99.90
2019-03-19T20:30:02.569Z,99.90
2019-03-19T20:31:59.412Z,99.90
2019-03-19T20:33:54.707Z,99.90
2019-03-19T20:35:48.755Z,99.90
2019-03-19T20:37:43.396Z,99.90
2019-03-19T20:39:38.312Z,99.90
2019-03-19T20:41:33.423Z,99.90
2019-03-19T20:43:27.890Z,99.90
2019-03-19T20:45:22.472Z,99.90
2019-03-19T20:47:16.654Z,99.90
2019-03-19T20:49:11.786Z,99.90
2019-03-19T20:51:06.941Z,99.90
2019-03-19T20:53:02.110Z,99.90
2019-03-19T20:54:57.319Z,99.90
2019-03-19T20:56:51.459Z,99.90
2019-03-19T20:58:46.494Z,99.90
2019-03-19T21:00:43.407Z,99.90
2019-03-19T21:02:38.517Z,99.90
2019-03-19T21:04:36.039Z,99.90
2019-03-19T21:06:30.572Z,99.90
2019-03-19T21:08:28.961Z,99.90
2019-03-19T21:10:23.584Z,99.90
2019-03-19T21:12:18.390Z,99.90
2019-03-19T21:14:13.294Z,99.90
2019-03-19T21:16:08.052Z,99.90
2019-03-19T21:18:02.879Z,99.90
2019-03-19T21:19:57.988Z,99.90
2019-03-19T21:21:53.033Z,99.90
2019-03-19T21:23:47.259Z,99.90
2019-03-19T21:25:46.175Z,99.90
2019-03-19T21:27:40.488Z,99.90
2019-03-19T21:29:35.567Z,99.90
2019-03-19T21:31:30.630Z,99.90
2019-03-19T21:33:24.866Z,99.90
2019-03-19T21:35:22.964Z,99.90
2019-03-19T21:37:18.051Z,99.90
2019-03-19T21:39:13.138Z,99.90
2019-03-19T21:41:08.105Z,99.90
2019-03-19T21:43:03.266Z,99.90
2019-03-19T21:44:58.179Z,99.90
2019-03-19T21:46:53.113Z,99.90
2019-03-19T21:48:47.260Z,99.90
2019-03-19T21:50:42.326Z,99.90
2019-03-19T21:52:36.811Z,99.90
2019-03-19T21:54:31.578Z,99.90
2019-03-19T21:56:25.882Z,99.90
2019-03-19T21:58:20.512Z,99.90
2019-03-19T22:00:16.658Z,99.90
2019-03-19T22:02:11.931Z,99.90
2019-03-19T22:04:06.936Z,99.90
2019-03-19T22:06:01.332Z,99.90
2019-03-19T22:07:56.448Z,99.90
2019-03-19T22:09:50.657Z,99.90
2019-03-19T22:11:46.212Z,99.90
2019-03-19T22:13:40.348Z,99.90
2019-03-19T22:15:34.622Z,99.90
2019-03-19T22:17:29.220Z,99.90
2019-03-19T22:19:23.818Z,99.90
2019-03-19T22:21:18.489Z,99.90
2019-03-19T22:23:13.127Z,99.90
2019-03-19T22:25:08.930Z,99.90
2019-03-19T22:27:03.651Z,99.90
2019-03-19T22:28:58.675Z,99.90
2019-03-19T22:30:53.472Z,99.90
2019-03-19T22:32:48.327Z,99.90
2019-03-19T22:34:43.697Z,99.90
2019-03-19T22:36:38.233Z,99.90
2019-03-19T22:38:32.444Z,99.90
2019-03-19T22:40:29.576Z,99.90
2019-03-19T22:42:23.828Z,99.90
2019-03-19T22:44:18.875Z,99.90
2019-03-19T22:46:21.391Z,99.90
2019-03-19T22:48:08.947Z,99.90
2019-03-19T22:50:03.891Z,99.90
2019-03-19T22:51:58.820Z,99.90
2019-03-19T22:53:52.867Z,99.90
2019-03-19T22:55:47.966Z,99.90
2019-03-19T22:57:42.945Z,99.90
2019-03-19T22:59:38.009Z,99.90
2019-03-19T23:01:33.311Z,99.90
2019-03-19T23:03:27.876Z,99.90
2019-03-19T23:05:22.620Z,99.90
2019-03-19T23:07:16.896Z,99.90
2019-03-19T23:09:11.989Z,99.90
2019-03-19T23:11:06.964Z,99.90
2019-03-19T23:13:01.344Z,99.90
2019-03-19T23:14:56.415Z,99.90
2019-03-19T23:16:51.074Z,99.90
2019-03-19T23:18:45.319Z,99.90
2019-03-19T23:20:39.496Z,99.90
2019-03-19T23:22:34.261Z,99.90
2019-03-19T23:24:29.398Z,99.90
2019-03-19T23:26:23.583Z,99.90
2019-03-19T23:28:18.434Z,99.90
2019-03-19T23:30:13.835Z,99.90
2019-03-19T23:32:08.860Z,99.90
2019-03-19T23:34:03.940Z,99.90
2019-03-19T23:35:58.627Z,99.90
2019-03-19T23:37:53.046Z,99.90
2019-03-19T23:39:47.894Z,99.90
2019-03-19T23:41:41.863Z,99.90
2019-03-19T23:43:36.803Z,99.90
2019-03-19T23:45:32.119Z,99.90
2019-03-19T23:47:27.159Z,99.90
2019-03-19T23:49:21.759Z,99.90
2019-03-19T23:51:16.035Z,99.90
2019-03-19T23:53:10.244Z,99.90
2019-03-19T23:55:04.903Z,99.90
2019-03-19T23:56:59.483Z,99.90
2019-03-19T23:58:54.561Z,99.90
